Wallaceburg, Canada
Current Conditions -  °F | °C
As of 4:58 AM on Monday 26 Jan 2015 (Local Time) from KMTC Reporting Station
Clear Clear  
Wind Chill:   Ceiling: Unl
Heat Index: 10°   Visibility: 10mi
Dew Point:   Wind: 7mph
Humidity: 73%   Direction: 10°N
Pressure: 29.93"   Gusts: NA
Location:  42.58°N, 82.37°W
Report Text: KMTC 260958Z AUTO 01006KT 10SM CLR M12/M16 A2993 RMK AO2 SLP150 T11201159 $
Loading
Personal Weather Stations






























Interactive Weather Map New forecast layout! Learn more

10-Day Weather Forecast

Advertisements
Track Severe Weather on mobile